TAF KLBB
KLBB 081720Z 0818/0918 24015G25KT P6SM SCT250 FM090300 22014KT P6SM SCT250 WS010/23035KT FM091500 27020KT P6SM SCT250=
METAR KLBB
KLBB 082053Z 22016G24KT 10SM FEW210 BKN250 21/M05 A2987 RMK AO2 PK WND 24028/1956 SLP090 T02111050 56029 ?
KLBB 081953Z 24017G24KT 10SM FEW220 BKN250 21/M05 A2990 RMK AO2 PK WND 25027/1943 SLP103 T02111050 ?
KLBB 081853Z 23013KT 10SM FEW220 BKN250 19/M04 A2994 RMK AO2 SLP114 T01891039 ?
KLBB 081753Z 25014KT 10SM SCT220 BKN250 17/M03 A2997 RMK AO2 SLP129 T01721033 10183 20000 58014 ?
KLBB 081653Z 26011KT 10SM FEW220 BKN250 16/M02 A3001 RMK AO2 SLP142 T01561022 ?
WC KLBB
WS KLBB
WV KLBB